Time;durP1;ratioP1;P1;durP2;ratioP2;P2;SDS_P1;SDS_P2;PMS_P1;PMS_P2;Temp;Humidity;BMP_temperature;BMP_pressure;BME280_temperature;BME280_humidity;BME280_pressure;Samples;Min_cycle;Max_cycle;Signal;HPM_P1;HPM_P2
2021/01/11 00:00:39;;;;;;;48.90;25.20;;;1.80;76.40;;;;;;5095239;28;20032;-41
2021/01/11 00:03:04;;;;;;;51.78;27.10;;;1.80;76.60;;;;;;5096889;28;20012;-42
2021/01/11 00:05:30;;;;;;;104.05;41.70;;;1.80;76.70;;;;;;5096321;28;20476;-42
2021/01/11 00:07:56;;;;;;;61.30;29.27;;;1.80;76.70;;;;;;5097260;28;20085;-42
2021/01/11 00:10:22;;;;;;;91.93;41.97;;;1.80;76.80;;;;;;5095297;28;20353;-42
2021/01/11 00:12:48;;;;;;;72.47;33.17;;;1.80;76.70;;;;;;5095825;28;20051;-43
2021/01/11 00:15:17;;;;;;;53.65;26.45;;;1.70;76.80;;;;;;5095287;28;20024;-41
2021/01/11 00:17:43;;;;;;;46.10;24.98;;;1.70;76.80;;;;;;5095575;28;20020;-42
2021/01/11 00:20:10;;;;;;;47.40;24.80;;;1.70;76.80;;;;;;5094678;28;20055;-42
2021/01/11 00:22:36;;;;;;;53.85;25.05;;;1.70;76.80;;;;;;5095406;28;20466;-42
2021/01/11 00:25:04;;;;;;;50.35;27.30;;;1.70;76.80;;;;;;5095182;28;20036;-42
2021/01/11 00:27:29;;;;;;;51.15;25.83;;;1.70;76.80;;;;;;5096306;28;20066;-41
2021/01/11 00:29:55;;;;;;;51.35;27.25;;;1.70;76.80;;;;;;5096878;28;20063;-41
2021/01/11 00:32:20;;;;;;;79.32;35.47;;;1.60;76.80;;;;;;5096446;28;20043;-42
2021/01/11 00:34:46;;;;;;;51.20;25.67;;;1.60;76.80;;;;;;5094997;28;20111;-42
2021/01/11 00:37:12;;;;;;;46.33;24.27;;;1.60;76.90;;;;;;5090962;28;20430;-43
2021/01/11 00:39:38;;;;;;;46.38;23.83;;;1.60;76.80;;;;;;5095311;28;20438;-43
2021/01/11 00:42:04;;;;;;;44.35;23.13;;;1.60;76.80;;;;;;5093557;28;20020;-42
2021/01/11 00:44:30;;;;;;;40.20;20.88;;;1.70;76.70;;;;;;5089908;28;20452;-42
2021/01/11 00:47:03;;;;;;;49.70;26.23;;;1.60;76.50;;;;;;5082785;28;20020;-42
2021/01/11 00:49:30;;;;;;;45.15;25.35;;;1.60;76.40;;;;;;5094721;28;20062;-42
2021/01/11 00:51:55;;;;;;;40.65;21.10;;;1.60;76.40;;;;;;5095402;28;20036;-42
2021/01/11 00:54:22;;;;;;;51.38;25.75;;;1.60;76.60;;;;;;5094501;28;20496;-42
2021/01/11 00:56:47;;;;;;;48.30;25.33;;;1.60;76.70;;;;;;5094113;28;20028;-42
2021/01/11 00:59:13;;;;;;;43.83;22.88;;;1.60;76.70;;;;;;5095030;28;20016;-42
2021/01/11 01:01:52;;;;;;;39.03;20.52;;;1.60;76.70;;;;;;5094610;28;20036;-42
2021/01/11 01:04:21;;;;;;;48.72;24.63;;;1.60;76.80;;;;;;5094624;28;20020;-42
2021/01/11 01:06:47;;;;;;;49.08;25.63;;;1.60;76.90;;;;;;5091998;28;20025;-42
2021/01/11 01:09:13;;;;;;;46.90;24.25;;;1.60;76.50;;;;;;5091366;28;20034;-41
2021/01/11 01:11:41;;;;;;;41.40;21.80;;;1.60;76.30;;;;;;5094835;28;20040;-41
2021/01/11 01:14:07;;;;;;;50.58;25.25;;;1.60;76.40;;;;;;5094638;28;20039;-41
2021/01/11 01:16:33;;;;;;;38.78;20.70;;;1.60;76.40;;;;;;5095034;28;20303;-40
2021/01/11 01:18:59;;;;;;;38.53;19.63;;;1.50;76.30;;;;;;5094830;28;20024;-41
2021/01/11 01:21:25;;;;;;;40.13;21.02;;;1.50;76.30;;;;;;5095486;28;20047;-40
2021/01/11 01:23:51;;;;;;;40.70;20.88;;;1.50;76.40;;;;;;5094463;28;20062;-41
2021/01/11 01:26:18;;;;;;;44.13;22.58;;;1.50;76.30;;;;;;5095019;28;20060;-42
2021/01/11 01:28:44;;;;;;;41.22;20.85;;;1.50;76.30;;;;;;5091954;28;20356;-41
2021/01/11 01:31:10;;;;;;;38.90;19.90;;;1.50;76.40;;;;;;5094423;28;20078;-40
2021/01/11 01:33:36;;;;;;;38.42;20.83;;;1.40;76.30;;;;;;5094826;28;20043;-41
2021/01/11 01:36:02;;;;;;;37.17;20.88;;;1.40;76.20;;;;;;5094757;28;20492;-41
2021/01/11 01:38:28;;;;;;;40.15;21.50;;;1.40;76.20;;;;;;5094457;28;20377;-42
2021/01/11 01:40:54;;;;;;;47.90;24.27;;;1.40;76.20;;;;;;5093989;28;20051;-40
2021/01/11 01:43:20;;;;;;;37.40;19.80;;;1.40;76.50;;;;;;5094648;28;20020;-41
2021/01/11 01:45:46;;;;;;;42.33;22.23;;;1.40;76.50;;;;;;5094147;28;20438;-41
2021/01/11 01:48:12;;;;;;;40.88;21.65;;;1.40;76.70;;;;;;5094836;28;20062;-41
2021/01/11 01:50:40;;;;;;;45.97;24.83;;;1.40;76.90;;;;;;5094411;28;20044;-42
2021/01/11 01:53:06;;;;;;;39.38;21.40;;;1.40;76.90;;;;;;5091709;28;20031;-42
2021/01/11 01:55:32;;;;;;;39.03;20.38;;;1.50;76.90;;;;;;5094077;28;20035;-41
2021/01/11 01:58:01;;;;;;;42.05;22.73;;;1.50;76.60;;;;;;5094261;28;20518;-42
2021/01/11 02:00:27;;;;;;;25.67;15.68;;;1.50;76.60;;;;;;5091465;28;20153;-42
2021/01/11 02:02:53;;;;;;;32.05;18.40;;;1.50;76.30;;;;;;5094721;28;20066;-42
2021/01/11 02:05:19;;;;;;;35.05;18.65;;;1.60;76.30;;;;;;5093794;28;20036;-42
2021/01/11 02:08:00;;;;;;;39.65;20.77;;;1.60;76.40;;;;;;5091702;28;20020;-42
2021/01/11 02:10:37;;;;;;;37.17;19.08;;;1.60;76.40;;;;;;5091658;28;20028;-42
2021/01/11 02:13:31;;;;;;;31.90;17.70;;;1.60;76.20;;;;;;5097232;28;20064;-42
2021/01/11 02:16:18;;;;;;;32.33;15.95;;;1.70;76.00;;;;;;5096991;28;20382;-42
2021/01/11 02:19:14;;;;;;;24.48;14.70;;;1.70;75.80;;;;;;5098184;28;20024;-42
2021/01/11 02:22:02;;;;;;;26.50;14.70;;;1.60;75.30;;;;;;5097484;28;20052;-42
2021/01/11 02:24:57;;;;;;;22.15;13.02;;;1.60;75.50;;;;;;5095037;28;20469;-42
2021/01/11 02:27:56;;;;;;;25.48;13.73;;;1.60;75.20;;;;;;5097993;28;20020;-42
2021/01/11 02:30:36;;;;;;;25.08;13.90;;;1.70;75.20;;;;;;5084894;28;20063;-42
2021/01/11 02:33:11;;;;;;;24.58;14.70;;;1.70;75.50;;;;;;5097957;28;20024;-42
2021/01/11 02:35:48;;;;;;;20.63;12.27;;;1.70;75.40;;;;;;5097768;28;20032;-42
2021/01/11 02:38:20;;;;;;;18.95;10.75;;;1.70;75.20;;;;;;5096286;28;20027;-42
2021/01/11 02:40:46;;;;;;;17.60;10.43;;;1.70;75.20;;;;;;5095016;28;20107;-41
2021/01/11 02:43:14;;;;;;;17.98;11.02;;;1.70;75.00;;;;;;5097852;28;20032;-42
2021/01/11 02:45:40;;;;;;;18.80;12.00;;;1.70;75.00;;;;;;5097200;28;20032;-42
2021/01/11 02:48:26;;;;;;;20.90;12.75;;;1.70;74.90;;;;;;5096521;28;20046;-43
2021/01/11 02:51:09;;;;;;;16.02;9.88;;;1.80;75.10;;;;;;5096051;28;20042;-41
2021/01/11 02:53:44;;;;;;;18.90;11.13;;;1.80;75.00;;;;;;5095591;28;20016;-42
2021/01/11 02:56:13;;;;;;;14.73;9.60;;;1.80;75.10;;;;;;5092963;28;20083;-42
2021/01/11 02:58:51;;;;;;;18.05;11.02;;;1.90;75.10;;;;;;5095924;28;20039;-41
2021/01/11 03:01:17;;;;;;;18.17;10.80;;;1.90;75.10;;;;;;5095650;28;20036;-41
2021/01/11 03:03:47;;;;;;;14.70;8.60;;;2.00;74.90;;;;;;5097365;28;20067;-41
2021/01/11 03:06:13;;;;;;;16.60;10.43;;;2.00;74.40;;;;;;5095154;28;20329;-42
2021/01/11 03:08:39;;;;;;;16.75;9.98;;;2.10;74.50;;;;;;5096718;28;20030;-42
2021/01/11 03:11:05;;;;;;;16.67;10.80;;;2.10;74.40;;;;;;5097416;28;20044;-42
2021/01/11 03:13:31;;;;;;;19.23;11.40;;;2.10;74.30;;;;;;5096553;28;20101;-42
2021/01/11 03:15:56;;;;;;;16.63;10.40;;;2.10;74.20;;;;;;5096904;28;20031;-42
2021/01/11 03:18:22;;;;;;;15.82;9.23;;;2.20;73.80;;;;;;5097828;28;20426;-42
2021/01/11 03:20:48;;;;;;;16.95;10.15;;;2.30;73.60;;;;;;5096263;28;20465;-42
2021/01/11 03:23:14;;;;;;;14.30;9.13;;;2.30;73.50;;;;;;5095940;28;20026;-42
2021/01/11 03:25:40;;;;;;;14.15;8.73;;;2.30;73.50;;;;;;5096971;28;20341;-42
2021/01/11 03:28:06;;;;;;;15.68;9.43;;;2.30;73.70;;;;;;5097569;28;20360;-41
2021/01/11 03:30:32;;;;;;;16.17;9.85;;;2.40;73.60;;;;;;5096247;28;20074;-40
2021/01/11 03:32:58;;;;;;;16.13;10.38;;;2.40;73.70;;;;;;5096930;28;20461;-43
2021/01/11 03:35:24;;;;;;;15.00;9.63;;;2.40;73.70;;;;;;5096609;28;20028;-42
2021/01/11 03:37:50;;;;;;;12.95;8.15;;;2.50;73.70;;;;;;5094481;28;20020;-41
2021/01/11 03:40:16;;;;;;;16.15;9.18;;;2.50;73.70;;;;;;5085595;28;20482;-42
2021/01/11 03:42:42;;;;;;;18.35;10.60;;;2.60;73.80;;;;;;5093865;28;20441;-42
2021/01/11 03:45:10;;;;;;;15.80;10.00;;;2.60;73.70;;;;;;5097133;28;20032;-42
2021/01/11 03:47:36;;;;;;;23.77;11.80;;;2.60;73.60;;;;;;5097983;28;20020;-41
2021/01/11 03:50:05;;;;;;;17.65;10.18;;;2.70;73.40;;;;;;5097352;28;20086;-41
2021/01/11 03:52:36;;;;;;;19.70;11.98;;;2.80;73.30;;;;;;5097146;28;20072;-41
2021/01/11 03:55:03;;;;;;;17.65;11.40;;;2.80;73.00;;;;;;5097289;28;20028;-41
2021/01/11 03:57:30;;;;;;;17.27;10.90;;;2.80;72.80;;;;;;5097767;28;20077;-41
2021/01/11 03:59:57;;;;;;;16.58;10.35;;;2.80;72.50;;;;;;5091840;28;20054;-41
2021/01/11 04:02:22;;;;;;;19.20;11.98;;;2.80;72.40;;;;;;5093771;28;20358;-41
2021/01/11 04:04:48;;;;;;;18.70;11.93;;;2.80;72.40;;;;;;5096647;28;20028;-41
2021/01/11 04:07:14;;;;;;;20.60;11.55;;;2.80;72.40;;;;;;5093936;28;20450;-42
2021/01/11 04:09:40;;;;;;;15.15;9.43;;;2.80;72.40;;;;;;5092030;28;20035;-42
2021/01/11 04:12:06;;;;;;;15.40;9.85;;;2.80;72.30;;;;;;5095602;28;20036;-42
2021/01/11 04:14:32;;;;;;;18.50;11.07;;;2.80;72.20;;;;;;5094780;28;20337;-42
2021/01/11 04:16:58;;;;;;;17.92;11.55;;;2.90;72.10;;;;;;5096761;28;20019;-42
2021/01/11 04:19:24;;;;;;;17.90;10.00;;;2.90;71.90;;;;;;5095903;28;20356;-42
2021/01/11 04:21:49;;;;;;;14.75;9.50;;;2.90;71.60;;;;;;5096136;28;20028;-42
2021/01/11 04:24:15;;;;;;;22.38;13.23;;;2.80;71.80;;;;;;5095911;28;20028;-42
2021/01/11 04:26:44;;;;;;;17.25;10.77;;;2.90;71.80;;;;;;5097356;28;20040;-43
2021/01/11 04:29:10;;;;;;;15.95;10.23;;;2.90;71.90;;;;;;5095719;28;20028;-42
2021/01/11 04:31:35;;;;;;;16.67;10.85;;;2.90;71.70;;;;;;5096484;28;20062;-42
2021/01/11 04:34:01;;;;;;;15.70;9.95;;;2.90;71.50;;;;;;5095895;28;20027;-43
2021/01/11 04:36:27;;;;;;;17.17;10.38;;;2.80;71.70;;;;;;5096419;28;20071;-42
2021/01/11 04:38:52;;;;;;;17.60;10.18;;;2.80;71.10;;;;;;5093317;28;20024;-42
2021/01/11 04:41:20;;;;;;;22.50;12.30;;;2.80;71.10;;;;;;5093828;28;20042;-42
2021/01/11 04:43:48;;;;;;;18.33;10.77;;;2.70;70.90;;;;;;5090874;28;20134;-42
2021/01/11 04:46:14;;;;;;;15.77;9.80;;;2.70;71.00;;;;;;5096869;28;20038;-41
2021/01/11 04:48:43;;;;;;;15.95;9.27;;;2.70;70.90;;;;;;5091713;28;20425;-42
2021/01/11 04:51:10;;;;;;;17.13;10.25;;;2.60;70.80;;;;;;5091938;28;20142;-41
2021/01/11 04:53:41;;;;;;;20.65;11.38;;;2.60;70.60;;;;;;5086564;28;20024;-42
2021/01/11 04:56:11;;;;;;;17.88;10.05;;;2.60;70.60;;;;;;5078607;28;20090;-41
2021/01/11 04:59:07;;;;;;;20.63;11.43;;;2.60;70.80;;;;;;5074264;28;20354;-41
2021/01/11 05:01:34;;;;;;;19.42;11.23;;;2.50;70.50;;;;;;5065678;28;20127;-42
2021/01/11 05:04:01;;;;;;;18.98;10.65;;;2.50;70.40;;;;;;5090584;28;20029;-42
2021/01/11 05:06:28;;;;;;;19.60;11.00;;;2.50;70.20;;;;;;5077218;28;20118;-41
2021/01/11 05:09:06;;;;;;;19.55;11.98;;;2.40;70.20;;;;;;5081041;28;20139;-42
2021/01/11 05:11:32;;;;;;;23.38;11.90;;;2.30;70.20;;;;;;5094487;28;20067;-41
2021/01/11 05:13:57;;;;;;;20.33;10.75;;;2.30;70.40;;;;;;5094328;28;20023;-42
2021/01/11 05:16:23;;;;;;;21.45;10.30;;;2.20;70.40;;;;;;5094923;28;20028;-42
2021/01/11 05:18:50;;;;;;;18.00;10.30;;;2.20;70.70;;;;;;5094258;28;20429;-43
2021/01/11 05:21:38;;;;;;;17.40;10.07;;;2.20;70.70;;;;;;5093159;28;20247;-42
2021/01/11 05:24:27;;;;;;;16.65;10.20;;;2.10;70.50;;;;;;5093602;28;20024;-42
2021/01/11 05:26:53;;;;;;;20.15;11.02;;;2.10;70.50;;;;;;5090206;28;20036;-42
2021/01/11 05:29:18;;;;;;;16.77;9.93;;;2.10;70.60;;;;;;5093199;28;20349;-42
2021/01/11 05:32:10;;;;;;;15.85;9.48;;;2.00;70.60;;;;;;5096496;28;20154;-41
2021/01/11 05:34:48;;;;;;;16.27;9.57;;;2.00;70.60;;;;;;5092478;28;20115;-40
2021/01/11 05:37:30;;;;;;;16.95;9.68;;;2.00;70.80;;;;;;5094726;28;20042;-40
2021/01/11 05:40:16;;;;;;;16.25;9.32;;;1.90;70.80;;;;;;5094320;28;20020;-40
2021/01/11 05:42:47;;;;;;;14.68;8.90;;;1.90;70.70;;;;;;5095316;28;20070;-41
2021/01/11 05:45:17;;;;;;;15.70;8.57;;;1.90;70.70;;;;;;5094571;28;20028;-41
2021/01/11 05:47:57;;;;;;;14.93;8.88;;;1.90;70.70;;;;;;5095576;28;20024;-42
2021/01/11 05:50:33;;;;;;;16.40;9.38;;;1.90;70.70;;;;;;5093514;28;20044;-41
2021/01/11 05:53:00;;;;;;;14.82;8.27;;;1.90;70.60;;;;;;5094874;28;20032;-42
2021/01/11 05:55:27;;;;;;;13.93;8.30;;;1.90;70.50;;;;;;5093778;28;20031;-41
2021/01/11 05:58:04;;;;;;;18.70;12.00;;;1.80;70.50;;;;;;5094118;28;20020;-42
2021/01/11 06:00:34;;;;;;;17.40;10.00;;;1.80;70.60;;;;;;5094438;28;20413;-41
2021/01/11 06:03:02;;;;;;;17.93;9.10;;;1.80;70.50;;;;;;5094907;28;20111;-42
2021/01/11 06:05:30;;;;;;;16.90;11.48;;;1.70;70.50;;;;;;5094207;28;20264;-41
2021/01/11 06:07:56;;;;;;;17.95;9.48;;;1.70;70.70;;;;;;5095510;28;20054;-42
2021/01/11 06:10:23;;;;;;;18.13;9.70;;;1.70;70.90;;;;;;5094785;28;20369;-42
2021/01/11 06:12:49;;;;;;;15.68;8.48;;;1.70;71.00;;;;;;5093927;28;20028;-42
2021/01/11 06:15:17;;;;;;;18.45;10.30;;;1.70;71.00;;;;;;5093221;28;20043;-41
2021/01/11 06:17:45;;;;;;;22.30;11.82;;;1.70;71.00;;;;;;5093979;28;20110;-41
2021/01/11 06:20:18;;;;;;;17.60;9.85;;;1.70;70.80;;;;;;5093252;28;20611;-41
2021/01/11 06:22:47;;;;;;;18.42;10.10;;;1.70;70.70;;;;;;5093706;28;20024;-42
2021/01/11 06:25:18;;;;;;;16.38;8.70;;;1.70;70.80;;;;;;5093876;28;20028;-41
2021/01/11 06:27:56;;;;;;;17.25;10.32;;;1.60;70.90;;;;;;5093720;28;20031;-43
2021/01/11 06:30:34;;;;;;;18.98;10.77;;;1.60;70.80;;;;;;5094918;28;20040;-41
2021/01/11 06:33:08;;;;;;;17.77;10.07;;;1.60;70.80;;;;;;5094213;28;20328;-42
2021/01/11 06:35:37;;;;;;;18.30;9.30;;;1.60;70.70;;;;;;5093919;28;20028;-41
2021/01/11 06:38:10;;;;;;;19.38;9.60;;;1.50;70.90;;;;;;5093103;28;20417;-42
2021/01/11 06:40:37;;;;;;;23.88;11.25;;;1.50;71.10;;;;;;5093825;28;20036;-41
2021/01/11 06:43:03;;;;;;;27.20;14.82;;;1.50;71.20;;;;;;5093699;28;20024;-42
2021/01/11 06:45:37;;;;;;;20.98;13.60;;;1.50;71.20;;;;;;5094416;28;20055;-41
2021/01/11 06:48:07;;;;;;;21.38;11.45;;;1.50;71.20;;;;;;5093895;28;20020;-42
2021/01/11 06:50:34;;;;;;;18.08;11.60;;;1.60;71.00;;;;;;5092911;28;20304;-41
2021/01/11 06:53:01;;;;;;;21.33;12.23;;;1.60;70.90;;;;;;5092087;28;20423;-41
2021/01/11 06:55:28;;;;;;;25.42;13.55;;;1.60;70.90;;;;;;5092512;28;20036;-41
2021/01/11 06:58:01;;;;;;;25.63;14.43;;;1.60;71.30;;;;;;5093737;28;20039;-42
2021/01/11 07:00:39;;;;;;;25.08;13.73;;;1.60;70.80;;;;;;5096467;28;20109;-41
2021/01/11 07:03:07;;;;;;;20.45;12.00;;;1.60;70.90;;;;;;5098249;28;20383;-42
2021/01/11 07:05:33;;;;;;;22.83;13.52;;;1.50;70.90;;;;;;5097635;28;20036;-41
2021/01/11 07:08:09;;;;;;;26.90;13.55;;;1.50;70.80;;;;;;5098420;28;20020;-42
2021/01/11 07:10:36;;;;;;;26.98;14.40;;;1.50;70.90;;;;;;5092826;28;20449;-41
2021/01/11 07:13:17;;;;;;;29.88;15.95;;;1.50;71.00;;;;;;5091912;28;20060;-42
2021/01/11 07:16:03;;;;;;;37.63;17.67;;;1.50;71.10;;;;;;5076773;28;20082;-41
2021/01/11 07:18:48;;;;;;;22.70;11.88;;;1.60;71.20;;;;;;5075391;28;20115;-42
2021/01/11 07:21:19;;;;;;;22.23;11.73;;;1.60;71.20;;;;;;5072911;28;20052;-41
2021/01/11 07:23:46;;;;;;;23.10;12.70;;;1.60;71.30;;;;;;5074667;28;20434;-41
2021/01/11 07:26:32;;;;;;;20.60;11.60;;;1.60;71.30;;;;;;5074177;28;20028;-42
2021/01/11 07:29:24;;;;;;;23.98;14.57;;;1.60;71.30;;;;;;5074540;28;20012;-42
2021/01/11 07:31:51;;;;;;;29.15;14.82;;;1.70;71.20;;;;;;5075458;28;20052;-41
2021/01/11 07:34:19;;;;;;;18.23;10.93;;;1.70;71.00;;;;;;5075978;28;20021;-42
2021/01/11 07:36:47;;;;;;;48.47;24.10;;;1.70;70.90;;;;;;5075084;28;20027;-42
2021/01/11 07:39:20;;;;;;;37.75;19.10;;;1.80;70.70;;;;;;5076996;28;20103;-42
2021/01/11 07:41:49;;;;;;;21.60;12.05;;;1.80;70.50;;;;;;5078047;28;20299;-41
2021/01/11 07:44:23;;;;;;;15.88;8.68;;;1.90;70.40;;;;;;5075978;28;20410;-42
2021/01/11 07:46:58;;;;;;;15.18;9.07;;;1.90;70.20;;;;;;5074356;28;20426;-41
2021/01/11 07:49:25;;;;;;;18.63;10.90;;;1.90;70.20;;;;;;5075221;28;20064;-41
2021/01/11 07:51:51;;;;;;;18.23;11.02;;;2.00;70.00;;;;;;5075751;28;20093;-42
2021/01/11 07:54:22;;;;;;;21.77;12.00;;;2.00;69.80;;;;;;5074782;28;20051;-42
2021/01/11 07:56:50;;;;;;;21.65;12.82;;;2.00;69.80;;;;;;5083696;28;20052;-41
2021/01/11 07:59:16;;;;;;;20.13;11.77;;;2.00;69.60;;;;;;5085758;28;20035;-42
2021/01/11 08:01:44;;;;;;;19.83;11.68;;;2.10;69.50;;;;;;5094206;28;20032;-42
2021/01/11 08:04:10;;;;;;;19.52;10.48;;;2.10;69.30;;;;;;5096064;28;20024;-41
2021/01/11 08:07:12;;;;;;;24.42;11.75;;;2.10;69.60;;;;;;5096835;28;20032;-41
2021/01/11 08:09:39;;;;;;;18.17;10.98;;;2.10;69.50;;;;;;5094730;28;20035;-42
2021/01/11 08:12:18;;;;;;;12.25;7.18;;;2.10;69.20;;;;;;5095057;28;20475;-42
2021/01/11 08:14:45;;;;;;;14.85;8.38;;;2.10;69.20;;;;;;5093756;28;20031;-41
2021/01/11 08:17:16;;;;;;;14.02;8.50;;;2.10;69.20;;;;;;5095245;28;20020;-41
2021/01/11 08:19:42;;;;;;;11.65;7.10;;;2.10;69.00;;;;;;5093618;28;20109;-41
2021/01/11 08:22:10;;;;;;;15.05;8.88;;;2.10;68.80;;;;;;5084883;28;20033;-42
2021/01/11 08:24:36;;;;;;;12.63;8.35;;;2.10;68.80;;;;;;5074946;28;20075;-41
2021/01/11 08:27:04;;;;;;;10.13;6.60;;;2.10;68.70;;;;;;5074875;28;20030;-42
2021/01/11 08:29:35;;;;;;;11.73;6.93;;;2.10;68.30;;;;;;5076073;28;20036;-41
2021/01/11 08:32:04;;;;;;;10.43;6.25;;;2.10;68.50;;;;;;5087812;28;20456;-41
2021/01/11 08:34:30;;;;;;;10.77;6.95;;;2.20;68.90;;;;;;5089319;28;20029;-41
2021/01/11 08:36:55;;;;;;;12.63;7.25;;;2.20;68.80;;;;;;5092467;28;20035;-42
2021/01/11 08:39:21;;;;;;;15.50;10.23;;;2.30;68.50;;;;;;5094007;28;20695;-41
2021/01/11 08:41:50;;;;;;;11.07;6.82;;;2.30;68.20;;;;;;5093863;28;20032;-42
2021/01/11 08:44:33;;;;;;;9.75;6.15;;;2.30;68.30;;;;;;5093959;28;20132;-41
2021/01/11 08:47:07;;;;;;;10.07;6.47;;;2.30;68.30;;;;;;5094075;28;20114;-41
2021/01/11 08:49:35;;;;;;;9.70;6.07;;;2.30;68.10;;;;;;5089970;28;20027;-41
2021/01/11 08:52:08;;;;;;;10.73;6.43;;;2.40;68.00;;;;;;5108750;28;20047;-41
2021/01/11 08:54:34;;;;;;;11.45;6.88;;;2.40;67.80;;;;;;5093588;28;20081;-41
2021/01/11 08:57:10;;;;;;;9.90;6.47;;;2.40;67.50;;;;;;5094170;28;20016;-41
2021/01/11 08:59:36;;;;;;;13.90;8.35;;;2.40;67.30;;;;;;5094034;28;20115;-41
2021/01/11 09:02:01;;;;;;;12.77;7.65;;;2.40;67.50;;;;;;5094423;28;20112;-42
2021/01/11 09:04:36;;;;;;;15.40;9.43;;;2.40;67.70;;;;;;5093864;28;20686;-40
2021/01/11 09:07:06;;;;;;;15.05;9.43;;;2.40;67.70;;;;;;5095265;28;20028;-42
2021/01/11 09:09:33;;;;;;;15.30;9.00;;;2.40;67.80;;;;;;5093740;28;20094;-41
2021/01/11 09:12:08;;;;;;;12.02;7.72;;;2.40;68.00;;;;;;5093077;28;20040;-41
2021/01/11 09:14:51;;;;;;;12.85;8.00;;;2.50;68.10;;;;;;5092083;28;20016;-41
2021/01/11 09:17:31;;;;;;;12.38;7.75;;;2.50;68.40;;;;;;5073801;28;20035;-41
2021/01/11 09:20:04;;;;;;;14.77;8.95;;;2.60;67.50;;;;;;5083650;28;20611;-42
2021/01/11 09:22:39;;;;;;;13.45;8.40;;;2.60;67.20;;;;;;5092933;28;20115;-41
2021/01/11 09:25:11;;;;;;;12.65;7.05;;;2.60;67.30;;;;;;5091854;28;20425;-41
2021/01/11 09:27:39;;;;;;;10.57;6.60;;;2.60;67.40;;;;;;5094979;28;20368;-41
2021/01/11 09:30:08;;;;;;;11.35;6.88;;;2.60;67.50;;;;;;5095127;28;20039;-41
2021/01/11 09:32:35;;;;;;;11.32;6.88;;;2.60;67.20;;;;;;5095695;28;20038;-41
2021/01/11 09:35:01;;;;;;;12.57;7.57;;;2.70;66.90;;;;;;5095109;28;20032;-41
2021/01/11 09:37:27;;;;;;;12.30;7.63;;;2.70;66.80;;;;;;5095565;28;20028;-41
2021/01/11 09:39:53;;;;;;;13.98;7.82;;;2.60;66.60;;;;;;5093159;28;20107;-41
2021/01/11 09:42:19;;;;;;;12.73;7.90;;;2.60;66.90;;;;;;5082361;28;20438;-42
2021/01/11 09:44:45;;;;;;;12.80;8.13;;;2.70;66.90;;;;;;5093533;28;20333;-41
2021/01/11 09:47:10;;;;;;;15.40;7.80;;;2.80;67.30;;;;;;5095516;28;20157;-41
2021/01/11 09:49:36;;;;;;;12.43;7.65;;;2.90;67.40;;;;;;5094994;28;20120;-41
2021/01/11 09:52:02;;;;;;;13.82;8.25;;;2.90;67.00;;;;;;5095574;28;20055;-42
2021/01/11 09:54:29;;;;;;;14.25;7.90;;;3.00;67.00;;;;;;5094419;28;20032;-41
2021/01/11 09:56:57;;;;;;;11.02;6.63;;;3.10;67.50;;;;;;5094987;28;20085;-41
2021/01/11 09:59:23;;;;;;;13.32;7.80;;;3.20;67.60;;;;;;5094111;28;20043;-41
2021/01/11 10:01:49;;;;;;;18.73;10.95;;;3.20;66.80;;;;;;5094685;28;20032;-43
2021/01/11 10:04:17;;;;;;;21.08;9.60;;;3.20;66.00;;;;;;5094481;28;20409;-42
2021/01/11 10:06:45;;;;;;;12.80;7.18;;;3.30;66.00;;;;;;5098048;28;20034;-41
2021/01/11 10:09:12;;;;;;;11.43;6.93;;;3.30;66.30;;;;;;5100827;28;20024;-44
2021/01/11 10:11:39;;;;;;;11.00;6.60;;;3.30;66.20;;;;;;5097212;28;20039;-43
2021/01/11 10:14:05;;;;;;;11.35;7.25;;;3.30;65.80;;;;;;5108833;28;20027;-43
2021/01/11 10:16:32;;;;;;;13.52;7.28;;;3.30;65.80;;;;;;5103685;28;20024;-44
2021/01/11 10:18:57;;;;;;;11.43;7.05;;;3.40;65.80;;;;;;5092980;28;20039;-43
2021/01/11 10:21:23;;;;;;;13.80;8.18;;;3.30;65.60;;;;;;5093757;28;20052;-43
2021/01/11 10:23:49;;;;;;;10.32;6.57;;;3.40;65.80;;;;;;5095130;28;20052;-43
2021/01/11 10:26:22;;;;;;;13.25;7.70;;;3.30;65.70;;;;;;5094483;28;20067;-44
2021/01/11 10:28:51;;;;;;;12.02;7.85;;;3.30;65.40;;;;;;5094229;28;20031;-42
2021/01/11 10:31:17;;;;;;;13.50;8.10;;;3.20;65.10;;;;;;5094804;28;20062;-45
2021/01/11 10:33:47;;;;;;;12.52;7.93;;;3.20;65.10;;;;;;5096744;28;20024;-44
2021/01/11 10:36:14;;;;;;;13.52;7.10;;;3.20;65.50;;;;;;5099102;28;20507;-44
2021/01/11 10:38:41;;;;;;;10.75;6.60;;;3.20;65.30;;;;;;5098256;28;20060;-43
2021/01/11 10:41:08;;;;;;;13.23;8.23;;;3.10;65.10;;;;;;5098101;28;20032;-43
2021/01/11 10:43:34;;;;;;;13.10;7.38;;;3.10;65.10;;;;;;5098004;28;20115;-43
2021/01/11 10:46:01;;;;;;;15.32;9.88;;;3.10;66.00;;;;;;5098399;28;20056;-44
2021/01/11 10:48:28;;;;;;;10.27;6.97;;;3.00;65.50;;;;;;5098532;28;20028;-42
2021/01/11 10:50:54;;;;;;;10.30;6.10;;;3.00;65.80;;;;;;5098436;28;20132;-43
2021/01/11 10:53:20;;;;;;;9.70;6.22;;;3.00;65.80;;;;;;5098265;28;20307;-44
2021/01/11 10:55:46;;;;;;;10.35;6.28;;;3.10;65.50;;;;;;5097247;28;20453;-43
2021/01/11 10:58:12;;;;;;;11.63;6.40;;;3.10;65.40;;;;;;5098199;28;20062;-45
2021/01/11 11:00:37;;;;;;;9.65;6.40;;;3.00;65.20;;;;;;5097354;28;20039;-42
2021/01/11 11:03:07;;;;;;;9.18;6.38;;;3.00;65.20;;;;;;5097745;28;20426;-44
2021/01/11 11:05:33;;;;;;;10.55;7.28;;;3.00;65.30;;;;;;5098336;28;20386;-44
2021/01/11 11:07:59;;;;;;;11.27;6.53;;;3.00;65.30;;;;;;5097869;28;20130;-43
2021/01/11 11:10:25;;;;;;;18.55;10.23;;;3.00;65.40;;;;;;5098024;28;20086;-44
2021/01/11 11:12:51;;;;;;;22.70;10.38;;;3.00;65.70;;;;;;5091072;28;20549;-44
2021/01/11 11:15:17;;;;;;;17.83;10.57;;;3.10;65.80;;;;;;5097243;28;20036;-45
2021/01/11 11:17:43;;;;;;;18.50;10.10;;;3.10;65.70;;;;;;5098313;28;20020;-44
2021/01/11 11:20:09;;;;;;;16.23;8.60;;;3.10;65.70;;;;;;5096663;28;20347;-43
2021/01/11 11:22:35;;;;;;;10.23;7.18;;;3.20;65.70;;;;;;5097705;28;20027;-43
2021/01/11 11:25:06;;;;;;;14.50;7.68;;;3.20;65.40;;;;;;5097404;28;20035;-44
2021/01/11 11:27:36;;;;;;;21.30;12.13;;;3.20;65.30;;;;;;5097628;28;20109;-43
2021/01/11 11:30:03;;;;;;;20.67;11.48;;;3.20;65.30;;;;;;5096358;28;20031;-43
2021/01/11 11:32:30;;;;;;;12.77;7.20;;;3.30;65.50;;;;;;5097736;28;20081;-43
2021/01/11 11:34:56;;;;;;;16.25;8.73;;;3.30;65.40;;;;;;5097735;28;20024;-43
2021/01/11 11:37:22;;;;;;;24.55;14.75;;;3.30;65.10;;;;;;5095825;28;20054;-44
2021/01/11 11:39:48;;;;;;;14.02;8.65;;;3.30;65.00;;;;;;5096735;28;20635;-43
2021/01/11 11:42:14;;;;;;;11.52;6.90;;;3.40;64.80;;;;;;5097463;28;20024;-41
2021/01/11 11:44:39;;;;;;;12.75;7.80;;;3.40;64.70;;;;;;5096193;28;20027;-37
2021/01/11 11:47:05;;;;;;;13.23;8.15;;;3.40;65.30;;;;;;5098042;28;20024;-43
2021/01/11 11:49:31;;;;;;;13.43;9.15;;;3.50;64.60;;;;;;5096008;28;20603;-41
2021/01/11 11:51:56;;;;;;;17.02;10.38;;;3.50;64.60;;;;;;5090711;28;20126;-42
2021/01/11 11:54:22;;;;;;;14.90;9.20;;;3.60;64.50;;;;;;5089495;28;20067;-41
2021/01/11 11:56:48;;;;;;;16.58;8.65;;;3.60;64.30;;;;;;5076642;28;20433;-43
2021/01/11 11:59:13;;;;;;;13.60;8.82;;;3.70;64.30;;;;;;5086389;28;20364;-41
2021/01/11 12:01:41;;;;;;;13.38;8.52;;;3.60;64.20;;;;;;5097563;28;20485;-41
2021/01/11 12:04:07;;;;;;;12.07;8.75;;;3.70;64.10;;;;;;5096504;28;20055;-42
2021/01/11 12:06:43;;;;;;;14.05;8.63;;;3.70;64.00;;;;;;5086100;28;20115;-41
2021/01/11 12:09:10;;;;;;;22.92;12.57;;;3.80;63.80;;;;;;5091252;28;20028;-41
2021/01/11 12:11:42;;;;;;;21.58;12.23;;;3.70;63.90;;;;;;5095562;28;20465;-41
2021/01/11 12:14:08;;;;;;;20.98;11.23;;;3.70;63.50;;;;;;5096014;28;20414;-41
2021/01/11 12:16:33;;;;;;;20.88;11.55;;;3.70;63.50;;;;;;5096807;28;20028;-41
2021/01/11 12:18:59;;;;;;;17.98;10.95;;;3.70;63.90;;;;;;5096147;28;20024;-42
2021/01/11 12:21:38;;;;;;;15.23;9.80;;;3.70;63.90;;;;;;5097936;28;20468;-44
2021/01/11 12:24:04;;;;;;;19.85;11.07;;;3.70;63.40;;;;;;5099939;28;20449;-40
2021/01/11 12:26:48;;;;;;;26.55;15.05;;;3.70;63.60;;;;;;5097104;28;20028;-40
2021/01/11 12:29:15;;;;;;;17.38;10.73;;;3.70;63.30;;;;;;5103058;28;20020;-42
2021/01/11 12:31:42;;;;;;;29.45;15.25;;;3.70;63.20;;;;;;5095360;28;20043;-42
2021/01/11 12:34:08;;;;;;;22.35;12.95;;;3.80;63.20;;;;;;5094268;28;20024;-42
2021/01/11 12:36:37;;;;;;;25.75;12.63;;;3.70;62.60;;;;;;5097114;28;20059;-42
2021/01/11 12:39:06;;;;;;;19.20;11.45;;;3.70;62.70;;;;;;5096273;28;20111;-42
2021/01/11 12:41:31;;;;;;;24.35;13.65;;;3.70;62.40;;;;;;5097248;28;20406;-42
2021/01/11 12:43:57;;;;;;;33.30;15.77;;;3.70;62.30;;;;;;5095956;28;20037;-45
2021/01/11 12:46:24;;;;;;;30.35;15.80;;;3.70;62.30;;;;;;5096674;28;20038;-42
2021/01/11 12:48:51;;;;;;;17.52;10.43;;;3.70;62.50;;;;;;5096539;28;20061;-43
2021/01/11 12:51:19;;;;;;;19.95;12.45;;;3.70;62.60;;;;;;5095655;28;20051;-43